Ozona, Mississippi
Current Conditions -  °F | °C
As of 8:53 PM on Thursday 27 Nov 2014 (Local Time) from KASD Reporting Station
Clear Clear  
Wind Chill: 39°   Ceiling: Unl
Heat Index: 39°   Visibility: 10mi
Dew Point: 35°   Wind: 3mph
Humidity: 86%   Direction: 10°N
Pressure: 30.45"   Gusts: NA
Location:  30.6922°N, 89.5187°W
Report Text: KASD 280253Z AUTO 01003KT 10SM CLR 04/02 A3045 RMK AO2 SLP310 T00390017 51009
Loading
Personal Weather Stations






























Interactive Weather Map New forecast layout! Learn more

10-Day Weather Forecast

Advertisements
Track Severe Weather on mobile